Time;durP1;ratioP1;P1;durP2;ratioP2;P2;SDS_P1;SDS_P2;PMS_P1;PMS_P2;Temp;Humidity;BMP_temperature;BMP_pressure;BME280_temperature;BME280_humidity;BME280_pressure;Samples;Min_cycle;Max_cycle;Signal;HPM_P1;HPM_P2
2021/12/17 00:00:01;;;;;;;17.92;11.55;;;7.30;87.10;;;;;;5088463;28;20130;-57
2021/12/17 00:05:13;;;;;;;21.65;14.23;;;7.30;87.30;;;;;;5091148;28;20491;-57
2021/12/17 00:07:40;;;;;;;21.92;15.07;;;7.20;87.40;;;;;;5082965;28;20041;-57
2021/12/17 00:10:14;;;;;;;20.15;13.35;;;7.20;87.70;;;;;;5090359;28;20060;-57
2021/12/17 00:12:40;;;;;;;23.23;13.65;;;7.30;87.80;;;;;;5089563;28;20058;-56
2021/12/17 00:15:07;;;;;;;19.63;14.05;;;7.20;87.80;;;;;;5092086;28;20036;-58
2021/12/17 00:17:37;;;;;;;24.88;16.63;;;7.20;87.80;;;;;;5089446;28;20024;-56
2021/12/17 00:50:52;;;;;;;27.30;16.80;;;7.30;88.50;;;;;;5091487;28;20077;-58
2021/12/17 00:53:19;;;;;;;25.55;15.55;;;7.30;88.40;;;;;;5082799;28;20055;-58
2021/12/17 00:55:45;;;;;;;26.15;17.05;;;7.30;88.40;;;;;;5085850;28;20469;-56
2021/12/17 00:58:10;;;;;;;30.92;18.90;;;7.30;88.40;;;;;;5089838;28;20028;-58
2021/12/17 01:00:36;;;;;;;29.77;18.23;;;7.30;88.60;;;;;;5087314;28;20129;-58
2021/12/17 01:03:02;;;;;;;27.88;16.33;;;7.40;88.70;;;;;;5088735;28;20029;-58
2021/12/17 01:05:30;;;;;;;31.60;18.77;;;7.40;88.70;;;;;;5088365;28;20021;-58
2021/12/17 01:07:58;;;;;;;25.02;17.40;;;7.40;89.30;;;;;;5088857;28;20019;-58
2021/12/17 01:10:34;;;;;;;28.40;19.05;;;7.40;88.60;;;;;;5087613;28;20028;-58
2021/12/17 01:12:59;;;;;;;25.17;16.77;;;7.40;88.50;;;;;;5081160;28;20040;-58
2021/12/17 01:15:26;;;;;;;26.50;16.20;;;7.40;88.30;;;;;;5087135;28;20044;-58
2021/12/17 01:17:57;;;;;;;24.63;15.88;;;7.40;88.10;;;;;;5089941;28;20074;-56
2021/12/17 01:36:28;;;;;;;18.90;12.70;;;7.20;88.80;;;;;;5088738;28;20033;-58
2021/12/17 01:41:54;;;;;;;26.33;17.25;;;7.20;88.80;;;;;;5088480;28;20043;-56
2021/12/17 01:44:20;;;;;;;22.98;15.65;;;7.20;88.90;;;;;;5086802;28;20016;-56
2021/12/17 01:46:49;;;;;;;19.63;14.05;;;7.30;89.00;;;;;;5086564;28;20030;-57
2021/12/17 01:55:38;;;;;;;19.63;14.65;;;7.30;89.00;;;;;;5088629;28;20027;-57
2021/12/17 02:00:19;;;;;;;18.20;13.98;;;7.30;88.70;;;;;;5085708;28;20455;-56
2021/12/17 02:02:52;;;;;;;19.83;13.25;;;7.30;88.70;;;;;;5083116;28;20024;-58
2021/12/17 02:05:18;;;;;;;21.33;13.50;;;7.30;88.70;;;;;;5088423;28;20107;-57
2021/12/17 02:07:47;;;;;;;19.10;12.82;;;7.30;88.70;;;;;;5084984;28;20423;-58
2021/12/17 02:32:01;;;;;;;15.95;11.48;;;7.30;88.30;;;;;;5087898;28;20059;-58
2021/12/17 02:37:07;;;;;;;18.67;12.93;;;7.30;88.30;;;;;;5086898;28;20027;-58
2021/12/17 02:42:33;;;;;;;18.05;11.68;;;7.30;88.40;;;;;;5086227;28;20027;-58
2021/12/17 02:47:44;;;;;;;17.05;12.20;;;7.30;88.40;;;;;;5088067;28;20069;-57
2021/12/17 02:50:11;;;;;;;15.40;11.35;;;7.30;88.50;;;;;;5084625;28;20024;-58
2021/12/17 02:52:39;;;;;;;17.63;11.95;;;7.30;88.50;;;;;;5084641;28;20027;-58
2021/12/17 02:55:07;;;;;;;19.50;13.32;;;7.30;88.40;;;;;;5084296;28;20077;-58
2021/12/17 02:57:34;;;;;;;18.00;13.23;;;7.30;88.40;;;;;;5085203;28;20032;-58
2021/12/17 03:00:04;;;;;;;16.90;11.35;;;7.30;88.40;;;;;;5086652;28;20040;-58
2021/12/17 03:02:31;;;;;;;17.27;12.65;;;7.30;88.30;;;;;;5081700;28;20064;-57
2021/12/17 03:04:57;;;;;;;14.30;11.27;;;7.40;88.30;;;;;;5086408;28;20610;-58
2021/12/17 03:07:23;;;;;;;18.20;12.05;;;7.40;88.00;;;;;;5087429;28;20081;-58
2021/12/17 03:10:06;;;;;;;18.33;13.07;;;7.40;88.00;;;;;;5088165;28;20482;-57
2021/12/17 03:12:43;;;;;;;19.88;12.85;;;7.30;87.90;;;;;;5087055;28;20463;-58
2021/12/17 03:26:05;;;;;;;18.63;12.70;;;7.20;88.00;;;;;;5088750;28;20031;-57
2021/12/17 03:28:32;;;;;;;16.30;11.38;;;7.20;88.00;;;;;;5090117;28;20043;-58
2021/12/17 03:30:58;;;;;;;21.90;14.05;;;7.20;88.10;;;;;;5095160;28;20485;-58
2021/12/17 03:33:24;;;;;;;17.70;11.93;;;7.20;88.20;;;;;;5091526;28;20115;-58
2021/12/17 03:35:51;;;;;;;15.98;11.60;;;7.20;88.30;;;;;;5094262;28;20467;-54
2021/12/17 03:38:17;;;;;;;18.10;12.57;;;7.20;88.20;;;;;;5094622;28;20028;-58
2021/12/17 03:40:45;;;;;;;16.05;11.00;;;7.30;88.30;;;;;;5091921;28;20024;-55
2021/12/17 03:43:12;;;;;;;15.15;11.43;;;7.30;88.10;;;;;;5093754;28;20028;-58
2021/12/17 03:45:42;;;;;;;15.68;11.57;;;7.30;88.10;;;;;;5093767;28;20345;-57
2021/12/17 03:48:08;;;;;;;16.95;12.65;;;7.30;88.00;;;;;;5092457;28;20028;-58
2021/12/17 03:50:36;;;;;;;19.45;12.73;;;7.30;88.10;;;;;;5090132;28;20039;-58
2021/12/17 03:53:03;;;;;;;17.42;11.70;;;7.30;88.10;;;;;;5091171;28;20032;-58
2021/12/17 03:55:29;;;;;;;16.40;12.00;;;7.30;88.00;;;;;;5093149;28;20031;-56
2021/12/17 03:57:58;;;;;;;16.10;11.43;;;7.30;88.00;;;;;;5094587;28;20036;-57
2021/12/17 04:00:24;;;;;;;16.45;11.85;;;7.30;87.90;;;;;;5094440;28;20051;-58
2021/12/17 04:02:50;;;;;;;14.35;10.70;;;7.30;88.00;;;;;;5092152;28;20032;-58
2021/12/17 04:05:16;;;;;;;16.45;11.18;;;7.30;87.90;;;;;;5093870;28;20154;-55
2021/12/17 04:07:41;;;;;;;15.70;12.07;;;7.30;88.50;;;;;;5091370;28;20025;-58
2021/12/17 04:10:08;;;;;;;14.30;9.77;;;7.30;87.80;;;;;;5093424;28;20104;-56
2021/12/17 04:12:53;;;;;;;16.02;11.18;;;7.30;87.80;;;;;;5094488;28;20452;-56
2021/12/17 04:15:28;;;;;;;14.40;11.00;;;7.30;87.70;;;;;;5087330;28;20368;-56
2021/12/17 04:17:57;;;;;;;14.88;10.98;;;7.30;87.60;;;;;;5094975;28;20039;-58
2021/12/17 04:20:22;;;;;;;14.75;11.02;;;7.30;87.60;;;;;;5088296;28;20016;-57
2021/12/17 04:22:48;;;;;;;12.38;10.07;;;7.30;87.80;;;;;;5092850;28;20050;-58
2021/12/17 04:25:14;;;;;;;16.63;10.75;;;7.30;87.60;;;;;;5092587;28;20024;-58
2021/12/17 04:27:39;;;;;;;13.35;9.32;;;7.20;87.60;;;;;;5095056;28;20032;-56
2021/12/17 04:30:05;;;;;;;13.80;10.48;;;7.30;87.70;;;;;;5090372;28;20093;-57
2021/12/17 04:32:31;;;;;;;15.77;10.27;;;7.30;87.80;;;;;;5093960;28;20035;-56
2021/12/17 04:34:56;;;;;;;12.80;9.85;;;7.30;87.80;;;;;;5091255;28;20028;-58
2021/12/17 04:37:22;;;;;;;13.23;10.70;;;7.30;87.80;;;;;;5088948;28;20028;-55
2021/12/17 04:39:48;;;;;;;13.43;9.75;;;7.20;87.70;;;;;;5089535;28;20036;-58
2021/12/17 04:42:20;;;;;;;14.30;10.88;;;7.30;87.70;;;;;;5091781;28;20024;-58
2021/12/17 04:44:54;;;;;;;14.82;11.10;;;7.30;87.80;;;;;;5088369;28;20028;-58
2021/12/17 04:58:03;;;;;;;13.75;9.38;;;7.20;87.60;;;;;;5085443;28;20040;-55
2021/12/17 05:00:30;;;;;;;14.05;10.25;;;7.20;87.80;;;;;;5085701;28;20396;-58
2021/12/17 05:02:59;;;;;;;12.38;9.27;;;7.20;87.80;;;;;;5083880;28;20480;-56
2021/12/17 05:05:29;;;;;;;11.55;9.25;;;7.20;87.80;;;;;;5088109;28;20404;-58
2021/12/17 05:08:00;;;;;;;12.10;8.73;;;7.20;87.80;;;;;;5090825;28;20020;-58
2021/12/17 05:18:41;;;;;;;12.27;8.98;;;7.20;87.80;;;;;;5083657;28;20031;-57
2021/12/17 05:21:09;;;;;;;10.95;8.57;;;7.20;87.70;;;;;;5085231;28;20028;-58
2021/12/17 05:23:39;;;;;;;11.90;9.20;;;7.20;87.60;;;;;;5088091;28;20048;-57
2021/12/17 05:26:11;;;;;;;11.93;8.68;;;7.20;87.60;;;;;;5089129;28;20012;-58
2021/12/17 05:28:37;;;;;;;10.90;8.98;;;7.20;87.60;;;;;;5085839;28;20381;-58
2021/12/17 05:31:03;;;;;;;11.80;8.82;;;7.20;87.60;;;;;;5090201;28;20107;-58
2021/12/17 05:33:30;;;;;;;10.70;8.50;;;7.20;87.60;;;;;;5087646;28;20028;-58
2021/12/17 05:35:59;;;;;;;10.63;7.75;;;7.20;87.60;;;;;;5088594;28;20025;-58
2021/12/17 05:38:26;;;;;;;11.02;8.50;;;7.20;87.60;;;;;;5090953;28;20028;-58
2021/12/17 05:40:53;;;;;;;10.88;8.00;;;7.20;87.50;;;;;;5083015;28;20136;-57
2021/12/17 05:43:19;;;;;;;10.68;7.85;;;7.20;87.40;;;;;;5083481;28;20093;-58
2021/12/17 05:48:13;;;;;;;8.77;7.07;;;7.20;87.30;;;;;;5083746;28;20468;-57
2021/12/17 05:50:41;;;;;;;9.70;7.47;;;7.20;87.30;;;;;;5079336;28;20149;-57
2021/12/17 05:53:07;;;;;;;10.90;7.93;;;7.10;87.30;;;;;;5079608;28;20040;-58
2021/12/17 05:55:34;;;;;;;10.23;7.97;;;7.20;87.40;;;;;;5079684;28;20478;-57
2021/12/17 05:58:00;;;;;;;10.05;7.53;;;7.10;87.40;;;;;;5074282;28;20025;-57
2021/12/17 06:00:29;;;;;;;9.48;7.65;;;7.10;87.40;;;;;;5076395;28;20064;-55
2021/12/17 06:02:56;;;;;;;12.70;7.93;;;7.10;87.40;;;;;;5083148;28;20029;-58
2021/12/17 06:05:22;;;;;;;9.93;7.22;;;7.10;87.30;;;;;;5078024;28;20468;-58
2021/12/17 06:07:47;;;;;;;8.68;7.03;;;7.10;87.40;;;;;;5077867;28;20043;-58
2021/12/17 06:10:13;;;;;;;10.20;7.03;;;7.10;87.30;;;;;;5082265;28;20434;-58
2021/12/17 06:12:40;;;;;;;9.43;7.45;;;7.10;87.20;;;;;;5082498;28;20548;-59
2021/12/17 06:15:08;;;;;;;9.38;6.97;;;7.00;87.20;;;;;;5086236;28;20086;-58
2021/12/17 06:17:34;;;;;;;7.30;6.18;;;7.10;87.30;;;;;;5079016;28;20055;-58
2021/12/17 06:20:00;;;;;;;8.95;6.45;;;7.00;87.30;;;;;;5077903;28;20074;-58
2021/12/17 06:22:25;;;;;;;9.93;7.28;;;7.00;87.40;;;;;;5079964;28;20080;-58
2021/12/17 06:24:52;;;;;;;8.10;6.25;;;7.00;87.40;;;;;;5079386;28;20028;-57
2021/12/17 06:27:19;;;;;;;9.93;7.07;;;7.00;87.50;;;;;;5078395;28;20472;-56
2021/12/17 06:29:46;;;;;;;7.32;5.90;;;7.00;87.60;;;;;;5080832;28;20027;-55
2021/12/17 06:32:11;;;;;;;9.25;6.22;;;7.00;87.70;;;;;;5079509;28;20032;-58
2021/12/17 06:34:38;;;;;;;7.55;5.90;;;7.00;87.70;;;;;;5081275;28;20031;-58
2021/12/17 06:37:05;;;;;;;8.23;6.60;;;7.00;87.70;;;;;;5076063;28;20025;-58
2021/12/17 06:39:31;;;;;;;7.38;5.95;;;7.00;87.60;;;;;;5083941;28;20460;-58
2021/12/17 06:41:57;;;;;;;7.60;5.88;;;7.00;87.60;;;;;;5077364;28;20028;-57
2021/12/17 06:44:25;;;;;;;7.75;6.50;;;7.00;87.50;;;;;;5075608;28;20028;-57
2021/12/17 06:47:07;;;;;;;7.25;5.47;;;7.00;87.50;;;;;;5076527;28;20055;-58
2021/12/17 06:55:08;;;;;;;6.75;5.43;;;7.10;87.50;;;;;;5073924;28;20483;-58
2021/12/17 07:06:10;;;;;;;6.28;4.78;;;7.10;87.30;;;;;;5061670;28;20047;-60
2021/12/17 07:35:50;;;;;;;4.07;3.70;;;7.00;86.70;;;;;;5053872;28;19999;-60
2021/12/17 07:41:01;;;;;;;3.85;3.40;;;7.10;86.90;;;;;;5060882;28;20049;-61
2021/12/17 07:43:37;;;;;;;4.03;3.63;;;7.10;86.90;;;;;;5059647;28;20059;-61
2021/12/17 07:46:06;;;;;;;6.70;3.88;;;7.20;86.90;;;;;;5061869;28;20029;-60
2021/12/17 07:48:31;;;;;;;5.72;4.07;;;7.20;86.80;;;;;;5061850;28;20028;-59
2021/12/17 07:50:58;;;;;;;3.58;3.28;;;7.20;86.70;;;;;;5056158;28;20048;-59
2021/12/17 07:53:24;;;;;;;4.68;4.05;;;7.20;86.70;;;;;;5057964;28;20043;-61
2021/12/17 07:55:50;;;;;;;5.63;3.95;;;7.20;86.60;;;;;;5060329;28;20036;-59
2021/12/17 07:58:15;;;;;;;5.50;4.40;;;7.30;86.50;;;;;;5058063;28;20033;-61
2021/12/17 08:00:42;;;;;;;4.20;3.80;;;7.20;86.40;;;;;;5055589;28;20071;-60
2021/12/17 08:03:07;;;;;;;3.67;3.28;;;7.30;86.40;;;;;;5059184;28;20537;-60
2021/12/17 08:05:33;;;;;;;5.55;4.05;;;7.30;86.40;;;;;;5059109;28;20024;-60
2021/12/17 08:07:59;;;;;;;4.30;3.75;;;7.30;86.30;;;;;;5060920;28;20151;-60
2021/12/17 08:10:25;;;;;;;4.53;3.80;;;7.30;86.30;;;;;;5065007;28;20488;-60
2021/12/17 08:12:54;;;;;;;5.80;4.20;;;7.30;86.30;;;;;;5060053;28;20036;-61
2021/12/17 08:15:27;;;;;;;3.92;3.50;;;7.30;86.20;;;;;;5061878;28;20024;-58
2021/12/17 08:18:17;;;;;;;5.03;3.65;;;7.30;86.10;;;;;;5066575;28;20119;-58
2021/12/17 08:26:06;;;;;;;4.35;3.50;;;7.40;86.00;;;;;;5069325;28;20143;-60
2021/12/17 08:28:52;;;;;;;4.78;3.63;;;7.40;85.90;;;;;;5066385;28;20726;-59
2021/12/17 08:31:18;;;;;;;5.63;3.67;;;7.40;85.90;;;;;;5062331;28;20036;-60
2021/12/17 08:33:44;;;;;;;4.25;3.83;;;7.40;85.90;;;;;;5063517;28;20044;-59
2021/12/17 08:36:10;;;;;;;5.28;3.85;;;7.40;85.80;;;;;;5060364;28;20024;-60
2021/12/17 08:38:36;;;;;;;3.50;3.20;;;7.40;85.60;;;;;;5062619;28;20035;-60
2021/12/17 08:41:02;;;;;;;3.00;2.70;;;7.30;84.80;;;;;;5064330;28;20032;-60
2021/12/17 08:43:28;;;;;;;3.35;2.38;;;7.30;84.30;;;;;;5069693;28;20150;-61
2021/12/17 08:45:54;;;;;;;2.50;2.30;;;7.20;84.20;;;;;;5067110;28;20017;-60
2021/12/17 08:48:20;;;;;;;2.40;2.20;;;7.10;84.10;;;;;;5063705;28;20032;-59
2021/12/17 08:50:45;;;;;;;2.65;1.90;;;7.00;84.00;;;;;;5063466;28;20988;-60
2021/12/17 08:53:11;;;;;;;2.20;2.00;;;7.00;84.40;;;;;;5059120;28;20124;-59
2021/12/17 08:55:37;;;;;;;2.08;1.92;;;6.90;84.60;;;;;;5064480;28;20028;-60
2021/12/17 08:58:03;;;;;;;2.05;1.95;;;6.90;84.70;;;;;;5059146;28;20028;-59
2021/12/17 09:00:29;;;;;;;1.90;1.80;;;6.90;84.70;;;;;;5063165;28;20028;-59
2021/12/17 09:02:59;;;;;;;1.85;1.75;;;6.90;84.50;;;;;;5060631;28;20031;-59
2021/12/17 09:05:25;;;;;;;1.88;1.73;;;6.90;84.60;;;;;;5059564;28;20024;-59
2021/12/17 09:07:51;;;;;;;1.88;1.70;;;6.90;84.60;;;;;;5066898;28;20044;-58
2021/12/17 09:10:21;;;;;;;1.83;1.73;;;6.90;84.70;;;;;;5065153;28;20111;-60
2021/12/17 09:12:48;;;;;;;3.50;2.07;;;6.90;84.70;;;;;;5070170;28;20123;-59
2021/12/17 09:15:15;;;;;;;2.10;2.00;;;6.90;84.50;;;;;;5066741;28;20270;-61
2021/12/17 09:17:40;;;;;;;2.20;1.90;;;7.00;84.30;;;;;;5071325;28;20119;-59
2021/12/17 09:20:07;;;;;;;2.13;1.92;;;7.00;84.10;;;;;;5059977;28;20491;-60
2021/12/17 09:22:34;;;;;;;2.88;2.00;;;7.00;84.00;;;;;;5076113;28;20058;-60
2021/12/17 09:24:59;;;;;;;2.30;2.15;;;7.00;84.00;;;;;;5057738;28;20794;-59
2021/12/17 09:27:26;;;;;;;3.03;2.42;;;7.00;84.00;;;;;;5057769;28;21350;-60
2021/12/17 09:29:52;;;;;;;4.88;2.30;;;7.00;84.10;;;;;;5051603;28;20073;-60
2021/12/17 09:32:17;;;;;;;2.78;2.55;;;7.00;84.40;;;;;;5054532;28;20450;-60
2021/12/17 09:34:43;;;;;;;4.13;2.67;;;7.00;84.30;;;;;;5063965;28;20868;-59
2021/12/17 09:37:09;;;;;;;3.63;2.45;;;7.10;84.30;;;;;;5060113;28;20524;-58
2021/12/17 09:39:35;;;;;;;4.30;3.15;;;7.10;84.40;;;;;;5058875;28;20068;-60
2021/12/17 09:42:01;;;;;;;6.07;4.65;;;7.10;84.50;;;;;;5059824;28;20116;-60
2021/12/17 09:44:27;;;;;;;4.05;3.65;;;7.10;84.60;;;;;;5057990;28;20055;-60
2021/12/17 09:46:57;;;;;;;3.78;3.40;;;7.20;84.60;;;;;;5053044;28;20032;-59
2021/12/17 09:49:24;;;;;;;3.92;3.30;;;7.20;84.60;;;;;;5057845;28;20037;-59
2021/12/17 09:51:50;;;;;;;4.05;3.50;;;7.30;84.70;;;;;;5054849;28;21290;-59
2021/12/17 09:54:16;;;;;;;3.65;3.35;;;7.40;84.80;;;;;;5062265;28;20043;-59
2021/12/17 09:56:42;;;;;;;6.13;3.67;;;7.40;84.80;;;;;;5058428;28;20040;-60
2021/12/17 09:59:08;;;;;;;5.80;4.05;;;7.40;84.70;;;;;;5054302;28;20040;-59
2021/12/17 10:01:38;;;;;;;3.92;3.53;;;7.50;84.70;;;;;;5066312;28;20040;-60
2021/12/17 10:04:28;;;;;;;4.75;3.72;;;7.50;84.70;;;;;;5056595;28;20039;-59
2021/12/17 10:07:33;;;;;;;5.82;3.80;;;7.50;84.70;;;;;;5062609;28;20535;-59
2021/12/17 10:10:03;;;;;;;4.32;3.92;;;7.60;84.70;;;;;;5061916;28;20621;-59
2021/12/17 10:12:32;;;;;;;5.53;3.97;;;7.60;84.90;;;;;;5065736;28;20032;-60
2021/12/17 10:15:13;;;;;;;5.05;4.32;;;7.60;84.90;;;;;;5055667;28;20031;-58
2021/12/17 10:18:01;;;;;;;4.38;3.83;;;7.60;84.60;;;;;;5057539;28;20035;-59
2021/12/17 10:20:29;;;;;;;4.90;4.18;;;7.60;84.50;;;;;;5057276;28;20039;-59
2021/12/17 10:23:04;;;;;;;5.15;4.07;;;7.70;84.60;;;;;;5057303;28;20051;-60
2021/12/17 10:25:31;;;;;;;5.75;4.40;;;7.70;84.40;;;;;;5055615;28;21519;-60
2021/12/17 10:28:00;;;;;;;7.28;4.63;;;7.70;84.40;;;;;;5065359;28;20051;-59
2021/12/17 10:30:27;;;;;;;6.05;4.20;;;7.70;84.30;;;;;;5065547;28;20024;-60
2021/12/17 10:32:58;;;;;;;4.75;4.13;;;7.70;84.30;;;;;;5059302;28;20429;-60
2021/12/17 10:35:30;;;;;;;5.82;4.30;;;7.70;84.20;;;;;;5063081;28;20036;-59
2021/12/17 10:38:14;;;;;;;5.22;3.97;;;7.70;84.20;;;;;;5062586;28;20036;-59
2021/12/17 10:40:50;;;;;;;7.38;4.97;;;7.70;84.10;;;;;;5062806;28;20040;-59
2021/12/17 10:43:25;;;;;;;5.80;4.40;;;7.70;84.30;;;;;;5056792;28;20056;-60
2021/12/17 10:46:00;;;;;;;5.63;4.65;;;7.70;84.30;;;;;;5059898;28;21035;-59
2021/12/17 10:48:38;;;;;;;5.80;4.55;;;7.70;84.20;;;;;;5059324;28;20025;-60
2021/12/17 10:53:58;;;;;;;7.55;4.38;;;7.70;84.00;;;;;;5062197;28;20074;-60
2021/12/17 10:56:27;;;;;;;5.25;4.50;;;7.70;84.00;;;;;;5060645;28;20032;-60
2021/12/17 10:59:04;;;;;;;4.70;4.25;;;7.70;84.00;;;;;;5063620;28;20392;-59
2021/12/17 11:01:45;;;;;;;5.00;3.67;;;7.70;84.10;;;;;;5063311;28;20671;-59
2021/12/17 11:04:23;;;;;;;4.57;3.70;;;7.70;84.10;;;;;;5048166;28;20040;-58
2021/12/17 11:06:56;;;;;;;4.82;3.85;;;7.70;83.90;;;;;;5048756;28;20056;-59
2021/12/17 11:09:34;;;;;;;4.85;4.10;;;7.70;83.80;;;;;;5058955;28;20032;-59
2021/12/17 11:12:06;;;;;;;4.85;3.92;;;7.70;83.60;;;;;;5051834;28;20024;-60
2021/12/17 11:14:32;;;;;;;5.93;4.80;;;7.80;83.70;;;;;;5053293;28;20036;-59
2021/12/17 11:16:58;;;;;;;9.10;4.50;;;7.80;83.70;;;;;;5060192;28;20032;-59
2021/12/17 11:19:24;;;;;;;4.88;3.80;;;7.80;83.60;;;;;;5058742;28;20025;-59
2021/12/17 11:21:50;;;;;;;5.60;4.20;;;7.80;83.40;;;;;;5060360;28;20791;-59
2021/12/17 11:24:16;;;;;;;6.30;4.00;;;7.80;83.50;;;;;;5062080;28;20036;-59
2021/12/17 11:26:42;;;;;;;4.88;4.03;;;7.80;83.40;;;;;;5064539;28;20493;-60
2021/12/17 11:29:11;;;;;;;4.88;3.90;;;7.80;83.90;;;;;;5059836;28;20103;-59
2021/12/17 11:31:37;;;;;;;5.45;4.22;;;7.80;83.20;;;;;;5067126;28;20405;-59
2021/12/17 11:34:04;;;;;;;4.85;3.97;;;7.80;83.20;;;;;;5064944;28;20037;-59
2021/12/17 11:36:33;;;;;;;4.78;4.30;;;7.80;83.30;;;;;;5061398;28;20038;-59
2021/12/17 11:39:25;;;;;;;4.20;3.80;;;7.80;83.20;;;;;;5063717;28;20031;-59
2021/12/17 11:42:14;;;;;;;5.00;3.90;;;7.80;82.90;;;;;;5069642;28;20092;-59
2021/12/17 11:44:42;;;;;;;6.03;3.88;;;7.80;83.00;;;;;;5053930;28;20043;-59
2021/12/17 11:47:10;;;;;;;4.55;4.10;;;7.70;82.90;;;;;;5058178;28;20093;-58
2021/12/17 11:49:57;;;;;;;5.28;3.97;;;7.70;82.90;;;;;;5069450;28;20028;-58
2021/12/17 11:52:50;;;;;;;8.18;3.55;;;7.70;82.80;;;;;;5063246;28;20309;-59
2021/12/17 11:55:35;;;;;;;4.15;3.60;;;7.70;82.60;;;;;;5063704;28;21826;-59
2021/12/17 11:58:13;;;;;;;5.10;3.65;;;7.60;82.80;;;;;;5063132;28;20032;-59
2021/12/17 12:00:41;;;;;;;4.45;3.70;;;7.60;82.80;;;;;;5064689;28;20032;-60
2021/12/17 12:03:24;;;;;;;4.65;3.83;;;7.60;83.00;;;;;;5058664;28;20034;-62
2021/12/17 12:06:00;;;;;;;5.65;4.32;;;7.60;83.00;;;;;;5056476;28;20093;-61
2021/12/17 12:08:54;;;;;;;4.38;3.92;;;7.60;83.20;;;;;;5060040;28;20136;-61
2021/12/17 12:11:23;;;;;;;4.43;3.50;;;7.60;83.10;;;;;;5062887;28;20028;-61
2021/12/17 12:13:53;;;;;;;5.10;3.90;;;7.60;83.10;;;;;;5063713;28;21094;-60
2021/12/17 12:16:25;;;;;;;3.88;3.33;;;7.60;82.90;;;;;;5060545;28;20712;-60
2021/12/17 12:19:12;;;;;;;5.72;3.60;;;7.70;82.90;;;;;;5064809;28;20045;-59
2021/12/17 12:21:40;;;;;;;4.97;3.40;;;7.60;82.70;;;;;;5061229;28;20046;-59
2021/12/17 12:24:09;;;;;;;3.08;2.80;;;7.60;82.50;;;;;;5073215;28;20495;-60
2021/12/17 12:26:55;;;;;;;4.53;3.00;;;7.60;82.30;;;;;;5064915;28;20377;-60
2021/12/17 12:29:23;;;;;;;3.10;2.80;;;7.60;81.90;;;;;;5066720;28;20040;-60
2021/12/17 12:32:02;;;;;;;2.95;2.75;;;7.60;82.10;;;;;;5065464;28;20028;-59
2021/12/17 12:34:30;;;;;;;3.72;3.05;;;7.60;82.00;;;;;;5060082;28;21599;-59
2021/12/17 12:37:17;;;;;;;3.60;2.90;;;7.60;82.20;;;;;;5080834;28;20029;-59
2021/12/17 12:40:15;;;;;;;3.00;2.70;;;7.60;82.20;;;;;;5069900;28;20028;-60
2021/12/17 12:42:48;;;;;;;3.70;2.90;;;7.60;82.10;;;;;;5061620;28;20032;-61
2021/12/17 12:45:15;;;;;;;4.10;2.72;;;7.60;82.00;;;;;;5070386;28;20675;-60
2021/12/17 12:47:42;;;;;;;3.00;2.78;;;7.60;82.10;;;;;;5062625;28;20509;-60
2021/12/17 12:50:22;;;;;;;3.25;2.78;;;7.60;82.00;;;;;;5058678;28;20031;-60
2021/12/17 12:53:19;;;;;;;4.50;3.20;;;7.50;82.00;;;;;;5060923;28;20059;-60
2021/12/17 12:55:48;;;;;;;4.28;3.20;;;7.50;82.00;;;;;;5059191;28;20044;-60
2021/12/17 12:58:36;;;;;;;5.57;3.72;;;7.50;82.10;;;;;;5065667;28;20042;-59
2021/12/17 13:01:02;;;;;;;4.40;3.33;;;7.50;81.90;;;;;;5071990;28;20032;-59
2021/12/17 13:03:34;;;;;;;3.65;3.05;;;7.50;81.90;;;;;;5064556;28;20028;-60
2021/12/17 13:06:00;;;;;;;;;;;7.50;81.50;;;;;;5070313;28;20024;-61
2021/12/17 13:08:30;;;;;;;1.88;1.77;;;7.30;80.40;;;;;;5063079;28;19962;-60
2021/12/17 13:11:02;;;;;;;1.65;1.55;;;7.30;80.90;;;;;;5061871;28;20028;-61
2021/12/17 13:16:12;;;;;;;1.60;1.60;;;7.20;80.30;;;;;;5056125;28;20039;-60
2021/12/17 13:24:16;;;;;;;1.40;1.35;;;7.00;79.90;;;;;;5064320;28;20257;-60
2021/12/17 13:26:46;;;;;;;2.03;1.60;;;7.00;79.60;;;;;;5066994;28;20024;-59
2021/12/17 13:29:33;;;;;;;1.60;1.50;;;6.90;79.50;;;;;;5061408;28;20025;-60
2021/12/17 13:32:11;;;;;;;2.03;1.88;;;7.00;79.60;;;;;;5064355;28;20422;-59
2021/12/17 13:34:49;;;;;;;1.90;1.80;;;6.90;79.50;;;;;;5058204;28;20032;-61
2021/12/17 13:37:24;;;;;;;3.97;3.35;;;6.90;79.40;;;;;;5058129;28;20028;-59
2021/12/17 13:39:57;;;;;;;9.80;6.43;;;6.90;79.50;;;;;;5060147;28;20907;-60
2021/12/17 13:42:26;;;;;;;8.60;5.63;;;6.90;79.50;;;;;;5065163;28;20032;-61
2021/12/17 13:44:56;;;;;;;8.52;5.50;;;6.90;79.40;;;;;;5062840;28;20427;-60
2021/12/17 13:47:32;;;;;;;6.68;4.47;;;6.90;79.30;;;;;;5062502;28;20024;-58
2021/12/17 13:50:11;;;;;;;4.95;3.42;;;6.90;79.30;;;;;;5062832;28;20046;-60
2021/12/17 13:52:49;;;;;;;4.22;3.10;;;6.90;79.40;;;;;;5067360;28;20073;-60
2021/12/17 13:55:18;;;;;;;3.35;2.78;;;6.90;79.50;;;;;;5067279;28;20042;-60
2021/12/17 13:57:44;;;;;;;3.28;2.60;;;6.90;79.80;;;;;;5066758;28;20051;-59
2021/12/17 14:00:16;;;;;;;3.88;2.75;;;6.80;80.10;;;;;;5063058;28;20571;-60
2021/12/17 14:02:44;;;;;;;2.70;2.47;;;6.80;80.20;;;;;;5061583;28;20028;-59
2021/12/17 14:05:16;;;;;;;4.55;3.25;;;6.80;80.50;;;;;;5063015;28;20033;-59
2021/12/17 14:07:49;;;;;;;2.40;2.05;;;6.70;80.60;;;;;;5063168;28;20034;-60
2021/12/17 14:10:18;;;;;;;1.88;1.75;;;6.70;80.80;;;;;;5061768;28;20070;-58
2021/12/17 14:12:44;;;;;;;2.00;1.80;;;6.60;80.80;;;;;;5062729;28;20033;-59
2021/12/17 14:15:11;;;;;;;1.85;1.75;;;6.60;80.90;;;;;;5052608;28;20039;-60
2021/12/17 14:17:43;;;;;;;1.80;1.70;;;6.50;80.90;;;;;;5060566;28;20039;-58
2021/12/17 14:20:36;;;;;;;1.85;1.75;;;6.40;81.00;;;;;;5065093;28;20249;-59
2021/12/17 14:23:16;;;;;;;2.08;1.90;;;6.40;81.10;;;;;;5067851;28;20139;-60
2021/12/17 14:25:49;;;;;;;2.08;1.98;;;6.30;81.60;;;;;;5064027;28;20059;-59
2021/12/17 14:28:18;;;;;;;2.10;1.92;;;6.30;81.90;;;;;;5064379;28;20082;-60
2021/12/17 14:30:53;;;;;;;1.70;1.60;;;6.30;82.10;;;;;;5058923;28;20513;-59
2021/12/17 14:33:21;;;;;;;1.80;1.70;;;6.30;82.20;;;;;;5067685;28;20129;-60
2021/12/17 14:36:01;;;;;;;2.35;2.15;;;6.30;82.20;;;;;;5062003;28;20365;-58
2021/12/17 14:38:40;;;;;;;2.35;1.90;;;6.30;82.10;;;;;;5069157;28;20130;-59
2021/12/17 14:41:47;;;;;;;2.00;1.90;;;6.30;82.20;;;;;;5062300;28;20035;-58
2021/12/17 14:47:07;;;;;;;2.40;2.20;;;6.30;82.20;;;;;;5064639;28;20066;-58
2021/12/17 15:00:45;;;;;;;3.00;2.80;;;6.30;81.80;;;;;;5059256;28;20055;-58
2021/12/17 15:03:23;;;;;;;3.47;3.00;;;6.30;82.20;;;;;;5061072;28;20036;-57
2021/12/17 15:05:49;;;;;;;3.75;2.90;;;6.30;82.00;;;;;;5069409;28;20418;-59
2021/12/17 15:08:16;;;;;;;4.15;2.80;;;6.30;82.10;;;;;;5068308;28;20414;-56
2021/12/17 15:10:42;;;;;;;3.20;2.90;;;6.30;82.30;;;;;;5056495;28;20684;-57
2021/12/17 15:13:08;;;;;;;2.72;2.45;;;6.30;82.10;;;;;;5054040;28;20031;-58
2021/12/17 15:15:36;;;;;;;4.03;2.70;;;6.30;82.20;;;;;;5058011;28;20105;-58
2021/12/17 15:18:14;;;;;;;4.07;2.90;;;6.30;82.40;;;;;;5065495;28;20043;-57
2021/12/17 15:20:41;;;;;;;3.08;2.70;;;6.20;82.50;;;;;;5067902;28;20040;-56
2021/12/17 15:23:06;;;;;;;3.58;2.63;;;6.30;82.70;;;;;;5067411;28;21259;-59
2021/12/17 15:25:35;;;;;;;3.53;2.70;;;6.30;82.70;;;;;;5069612;28;20078;-58
2021/12/17 15:28:00;;;;;;;3.75;2.45;;;6.30;82.70;;;;;;5059938;28;20024;-57
2021/12/17 15:30:30;;;;;;;2.20;2.00;;;6.20;82.70;;;;;;5067648;28;20463;-58
2021/12/17 15:32:56;;;;;;;2.20;2.00;;;6.20;82.60;;;;;;5074616;28;20031;-57
2021/12/17 15:35:23;;;;;;;1.52;1.48;;;6.20;82.70;;;;;;5063015;28;20048;-58
2021/12/17 15:37:51;;;;;;;3.17;1.95;;;6.20;82.80;;;;;;5068707;28;20043;-57
2021/12/17 15:40:18;;;;;;;1.90;1.80;;;6.20;82.80;;;;;;5070477;28;20560;-57
2021/12/17 15:42:44;;;;;;;2.20;2.10;;;6.20;82.90;;;;;;5072408;28;20042;-55
2021/12/17 15:45:11;;;;;;;2.00;1.90;;;6.20;82.80;;;;;;5072713;28;20023;-58
2021/12/17 15:47:38;;;;;;;3.03;2.05;;;6.20;82.80;;;;;;5070685;28;20166;-56
2021/12/17 15:50:06;;;;;;;3.65;2.42;;;6.20;83.10;;;;;;5070112;28;20028;-58
2021/12/17 15:52:37;;;;;;;2.67;2.30;;;6.20;83.10;;;;;;5071730;28;20032;-57
2021/12/17 15:55:05;;;;;;;2.35;2.17;;;6.20;83.30;;;;;;5076056;28;20116;-56
2021/12/17 15:57:30;;;;;;;2.47;2.28;;;6.20;83.30;;;;;;5073850;28;20045;-57
2021/12/17 15:59:56;;;;;;;2.60;2.40;;;6.20;83.30;;;;;;5074268;28;20388;-57
2021/12/17 16:02:22;;;;;;;2.60;2.40;;;6.20;83.40;;;;;;5074734;28;20176;-57
2021/12/17 16:04:48;;;;;;;2.72;2.50;;;6.20;83.40;;;;;;5076578;28;20474;-57
2021/12/17 16:07:14;;;;;;;3.72;2.85;;;6.20;83.50;;;;;;5078472;28;20012;-57
2021/12/17 16:16:52;;;;;;;3.13;2.70;;;6.20;83.60;;;;;;5079278;28;20054;-58
2021/12/17 16:23:11;;;;;;;3.25;2.67;;;6.20;83.70;;;;;;5072952;28;20549;-57
2021/12/17 16:25:36;;;;;;;3.63;2.95;;;6.20;84.00;;;;;;5077522;28;20024;-58
2021/12/17 16:28:03;;;;;;;3.75;2.90;;;6.30;84.20;;;;;;5075045;28;20036;-57
2021/12/17 16:30:30;;;;;;;4.07;2.90;;;6.30;84.00;;;;;;5067015;28;20036;-58
2021/12/17 16:32:56;;;;;;;4.57;3.00;;;6.30;84.00;;;;;;5067284;28;20047;-58
2021/12/17 16:35:22;;;;;;;3.90;3.10;;;6.30;83.90;;;;;;5075936;28;20036;-57